Time;durP1;ratioP1;P1;durP2;ratioP2;P2;SDS_P1;SDS_P2;PMS_P1;PMS_P2;Temp;Humidity;BMP_temperature;BMP_pressure;BME280_temperature;BME280_humidity;BME280_pressure;Samples;Min_cycle;Max_cycle;Signal;HPM_P1;HPM_P2
2023/06/15 00:01:32;;;;;;;;;;;;;;;13.27;81.70;100310.10;134253;1296;23167;-75
2023/06/15 00:04:33;;;;;;;;;;;;;;;13.24;81.62;100303.99;134231;1297;22481;-77
2023/06/15 00:07:33;;;;;;;;;;;;;;;13.23;81.68;100304.60;134219;1297;22469;-75
2023/06/15 00:10:34;;;;;;;;;;;;;;;13.24;81.80;100296.83;134245;1297;22550;-76
2023/06/15 00:13:35;;;;;;;;;;;;;;;13.25;81.78;100295.36;134228;1297;22495;-75
2023/06/15 00:16:41;;;;;;;;;;;;;;;13.23;81.80;100292.34;134152;1297;22464;-75
2023/06/15 00:19:44;;;;;;;;;;;;;;;13.21;81.86;100288.16;134201;1298;22475;-75
2023/06/15 00:22:45;;;;;;;;;;;;;;;13.20;81.98;100284.57;134212;1297;22441;-79
2023/06/15 00:25:46;;;;;;;;;;;;;;;13.20;82.00;100286.66;134239;1297;22465;-75
2023/06/15 00:28:46;;;;;;;;;;;;;;;13.14;81.99;100288.45;134223;1297;22534;-75
2023/06/15 00:31:51;;;;;;;;;;;;;;;13.10;82.37;100286.10;134270;1298;22457;-75
2023/06/15 00:34:51;;;;;;;;;;;;;;;13.06;82.62;100283.55;134055;1298;22436;-76
2023/06/15 00:37:52;;;;;;;;;;;;;;;13.01;82.60;100287.33;134209;1297;23422;-75
2023/06/15 00:40:54;;;;;;;;;;;;;;;12.98;82.79;100286.79;134296;1297;22503;-76
2023/06/15 00:43:55;;;;;;;;;;;;;;;12.97;83.00;100281.23;134269;1298;22436;-75
2023/06/15 00:46:56;;;;;;;;;;;;;;;12.96;83.10;100279.67;134175;1297;22616;-76
2023/06/15 00:49:58;;;;;;;;;;;;;;;12.96;83.07;100272.50;134048;1297;22497;-75
2023/06/15 00:53:00;;;;;;;;;;;;;;;12.94;82.81;100266.84;134223;1297;22446;-76
2023/06/15 00:56:02;;;;;;;;;;;;;;;12.91;83.09;100269.99;134277;1297;23229;-78
2023/06/15 00:59:02;;;;;;;;;;;;;;;12.91;83.45;100270.77;134278;1296;22448;-76
2023/06/15 01:02:03;;;;;;;;;;;;;;;12.90;83.32;100273.48;134088;1296;22437;-75
2023/06/15 01:05:04;;;;;;;;;;;;;;;12.89;83.21;100267.73;134177;1297;23200;-76
2023/06/15 01:08:07;;;;;;;;;;;;;;;12.90;83.23;100268.88;134069;1297;23150;-75
2023/06/15 01:11:08;;;;;;;;;;;;;;;12.89;83.14;100267.05;134050;1297;22459;-76
2023/06/15 01:14:09;;;;;;;;;;;;;;;12.87;83.40;100269.43;134318;1297;22476;-75
2023/06/15 01:17:16;;;;;;;;;;;;;;;12.85;83.34;100267.71;134214;1297;22445;-75
2023/06/15 01:20:30;;;;;;;;;;;;;;;12.84;83.38;100272.04;134167;1297;22538;-75
2023/06/15 01:23:36;;;;;;;;;;;;;;;12.82;83.38;100272.66;134216;1297;22512;-76
2023/06/15 01:26:38;;;;;;;;;;;;;;;12.80;83.58;100273.44;134221;1297;23230;-75
2023/06/15 01:29:41;;;;;;;;;;;;;;;12.74;83.57;100270.80;134236;1297;22449;-75
2023/06/15 01:32:42;;;;;;;;;;;;;;;12.70;83.89;100274.38;134134;1297;22465;-75
2023/06/15 01:35:44;;;;;;;;;;;;;;;12.71;83.87;100277.63;134263;1297;22459;-76
2023/06/15 01:38:48;;;;;;;;;;;;;;;12.73;83.98;100275.45;134107;1297;22479;-75
2023/06/15 01:41:49;;;;;;;;;;;;;;;12.71;84.11;100278.96;133923;1299;22435;-77
2023/06/15 01:44:50;;;;;;;;;;;;;;;12.68;84.38;100277.09;134205;1297;23262;-75
2023/06/15 01:47:54;;;;;;;;;;;;;;;12.71;84.56;100274.63;134251;1298;23919;-76
2023/06/15 01:50:55;;;;;;;;;;;;;;;12.73;84.73;100270.55;134158;1298;22487;-75
2023/06/15 01:53:56;;;;;;;;;;;;;;;12.76;84.86;100273.31;134239;1297;22443;-76
2023/06/15 01:56:59;;;;;;;;;;;;;;;12.81;84.94;100270.31;134288;1297;23331;-75
2023/06/15 02:00:00;;;;;;;;;;;;;;;12.84;85.02;100271.38;134283;1297;22435;-76
2023/06/15 02:03:02;;;;;;;;;;;;;;;12.86;84.99;100269.86;134279;1296;22450;-78
2023/06/15 02:06:08;;;;;;;;;;;;;;;12.89;85.02;100270.23;134079;1298;23185;-77
2023/06/15 02:09:09;;;;;;;;;;;;;;;12.88;85.13;100270.31;134086;1296;22690;-76
2023/06/15 02:12:13;;;;;;;;;;;;;;;12.89;85.06;100272.90;134202;1296;22467;-75
2023/06/15 02:15:44;;;;;;;;;;;;;;;12.89;85.21;100272.70;134102;1297;22536;-75
2023/06/15 02:18:45;;;;;;;;;;;;;;;12.90;85.23;100274.60;134109;1297;22455;-75
2023/06/15 02:21:47;;;;;;;;;;;;;;;12.90;85.43;100271.34;134224;1297;22447;-79
2023/06/15 02:24:48;;;;;;;;;;;;;;;12.91;85.34;100272.16;134090;1297;22494;-75
2023/06/15 02:27:49;;;;;;;;;;;;;;;12.92;85.25;100272.92;134220;1297;22473;-76
2023/06/15 02:30:49;;;;;;;;;;;;;;;12.93;85.35;100277.24;134340;1297;22460;-75
2023/06/15 02:33:50;;;;;;;;;;;;;;;12.93;85.32;100274.00;134069;1297;22475;-76
2023/06/15 02:36:53;;;;;;;;;;;;;;;12.94;85.25;100278.06;134204;1297;22493;-76
2023/06/15 02:39:53;;;;;;;;;;;;;;;12.94;85.35;100273.97;134226;1296;22400;-77
2023/06/15 02:42:54;;;;;;;;;;;;;;;12.95;85.56;100274.16;134108;1297;23147;-76
2023/06/15 02:45:55;;;;;;;;;;;;;;;12.96;85.46;100272.09;134083;1297;22446;-75
2023/06/15 02:48:57;;;;;;;;;;;;;;;12.95;85.29;100276.49;134053;1297;22447;-75
2023/06/15 02:52:00;;;;;;;;;;;;;;;12.92;85.25;100278.58;134347;1297;23138;-75
2023/06/15 02:55:01;;;;;;;;;;;;;;;12.91;85.40;100277.65;134083;1298;22425;-75
2023/06/15 02:58:01;;;;;;;;;;;;;;;12.92;85.56;100278.45;133973;1297;22519;-75
2023/06/15 03:01:38;;;;;;;;;;;;;;;12.90;85.33;100280.59;134204;1297;22508;-75
2023/06/15 03:04:44;;;;;;;;;;;;;;;12.88;85.49;100279.39;134091;1295;22467;-75
2023/06/15 03:07:46;;;;;;;;;;;;;;;12.87;85.54;100274.95;134142;1298;22435;-75
2023/06/15 03:11:07;;;;;;;;;;;;;;;12.87;85.73;100274.20;134234;1297;22452;-76
2023/06/15 03:14:10;;;;;;;;;;;;;;;12.86;85.68;100275.89;134224;1297;22418;-75
2023/06/15 03:17:12;;;;;;;;;;;;;;;12.84;85.67;100277.46;134062;1298;23150;-75
2023/06/15 03:20:15;;;;;;;;;;;;;;;12.81;85.64;100280.27;134137;1297;22490;-75
2023/06/15 03:23:15;;;;;;;;;;;;;;;12.78;85.85;100277.38;134242;1297;22505;-75
2023/06/15 03:26:16;;;;;;;;;;;;;;;12.79;85.97;100282.54;134231;1297;22566;-79
2023/06/15 03:29:19;;;;;;;;;;;;;;;12.82;85.97;100281.36;134268;1296;22427;-75
2023/06/15 03:32:22;;;;;;;;;;;;;;;12.86;86.11;100282.48;134226;1297;22455;-75
2023/06/15 03:35:26;;;;;;;;;;;;;;;12.88;86.05;100280.17;134171;1297;22456;-75
2023/06/15 03:38:27;;;;;;;;;;;;;;;12.88;85.99;100280.27;134045;1298;22433;-75
2023/06/15 03:41:30;;;;;;;;;;;;;;;12.90;86.17;100283.58;134104;1297;22485;-75
2023/06/15 03:44:30;;;;;;;;;;;;;;;12.93;86.24;100281.63;134163;1297;23818;-76
2023/06/15 03:47:34;;;;;;;;;;;;;;;12.93;86.19;100280.81;134298;1296;22444;-75
2023/06/15 03:50:34;;;;;;;;;;;;;;;12.94;86.30;100279.02;133973;1298;159536;-75
2023/06/15 03:53:36;;;;;;;;;;;;;;;12.96;86.34;100276.11;134080;1293;22436;-76
2023/06/15 03:56:40;;;;;;;;;;;;;;;12.98;86.32;100278.80;134048;1297;22429;-75
2023/06/15 03:59:40;;;;;;;;;;;;;;;13.08;86.60;100281.31;134091;1297;22498;-76
2023/06/15 04:02:41;;;;;;;;;;;;;;;13.25;86.78;100285.77;134071;1299;22442;-76
2023/06/15 04:05:43;;;;;;;;;;;;;;;13.36;86.68;100282.51;134009;1298;22478;-76
2023/06/15 04:08:43;;;;;;;;;;;;;;;13.46;86.57;100277.98;134068;1298;22413;-75
2023/06/15 04:11:44;;;;;;;;;;;;;;;13.53;86.40;100278.98;134244;1297;22448;-76
2023/06/15 04:14:45;;;;;;;;;;;;;;;13.58;86.44;100279.55;134215;1296;22469;-75
2023/06/15 04:17:50;;;;;;;;;;;;;;;13.70;86.63;100282.95;134165;1297;23159;-80
2023/06/15 04:20:54;;;;;;;;;;;;;;;13.87;86.68;100284.10;134190;1297;22446;-78
2023/06/15 04:23:55;;;;;;;;;;;;;;;14.12;86.65;100285.98;134140;1297;22530;-80
2023/06/15 04:26:57;;;;;;;;;;;;;;;14.28;86.25;100283.98;134247;1297;22441;-77
2023/06/15 04:29:59;;;;;;;;;;;;;;;14.37;86.13;100280.52;134075;1298;23282;-80
2023/06/15 04:33:00;;;;;;;;;;;;;;;14.56;86.10;100277.10;134069;1291;23170;-77
2023/06/15 04:36:03;;;;;;;;;;;;;;;14.68;85.73;100282.86;134062;1298;22541;-76
2023/06/15 04:39:04;;;;;;;;;;;;;;;14.80;85.63;100287.25;134048;1297;22451;-83
2023/06/15 04:42:09;;;;;;;;;;;;;;;15.17;85.90;100287.06;134137;1300;22442;-81
2023/06/15 04:45:11;;;;;;;;;;;;;;;15.76;85.79;100283.48;134113;1297;22439;-77
2023/06/15 04:48:12;;;;;;;;;;;;;;;16.23;84.35;100281.63;134044;1297;23164;-77
2023/06/15 04:51:15;;;;;;;;;;;;;;;16.32;83.07;100280.48;134070;1292;22656;-76
2023/06/15 04:54:22;;;;;;;;;;;;;;;16.39;82.88;100284.01;134187;1297;22446;-77
2023/06/15 04:57:25;;;;;;;;;;;;;;;16.39;81.96;100287.39;134155;1298;22452;-76
2023/06/15 05:00:26;;;;;;;;;;;;;;;16.31;81.69;100288.06;134074;1296;23183;-78
2023/06/15 05:03:33;;;;;;;;;;;;;;;16.21;81.31;100290.65;134042;1291;22497;-76
2023/06/15 05:06:33;;;;;;;;;;;;;;;16.03;81.11;100293.63;134018;1300;23149;-76
2023/06/15 05:09:34;;;;;;;;;;;;;;;15.96;81.48;100298.33;134240;1298;22417;-77
2023/06/15 05:12:38;;;;;;;;;;;;;;;15.98;81.44;100298.16;134013;1290;22490;-76
2023/06/15 05:15:38;;;;;;;;;;;;;;;15.99;81.23;100300.46;134215;1296;22432;-76
2023/06/15 05:18:39;;;;;;;;;;;;;;;15.99;81.22;100301.99;134050;1298;23211;-79
2023/06/15 05:21:39;;;;;;;;;;;;;;;15.96;81.14;100306.39;134248;1298;23194;-76
2023/06/15 05:24:40;;;;;;;;;;;;;;;15.95;81.23;100311.11;134187;1298;22457;-76
2023/06/15 05:27:42;;;;;;;;;;;;;;;16.00;81.18;100312.62;134119;1297;22467;-77
2023/06/15 05:30:43;;;;;;;;;;;;;;;16.00;80.83;100316.13;134125;1298;22454;-76
2023/06/15 05:33:47;;;;;;;;;;;;;;;15.97;80.82;100314.48;134072;1290;22497;-76
2023/06/15 05:36:48;;;;;;;;;;;;;;;15.97;80.90;100320.35;134208;1297;22448;-76
2023/06/15 05:39:49;;;;;;;;;;;;;;;15.95;80.79;100318.08;134258;1297;24147;-77
2023/06/15 05:42:50;;;;;;;;;;;;;;;15.90;80.74;100318.82;134067;1298;23188;-76
2023/06/15 05:45:51;;;;;;;;;;;;;;;15.89;80.91;100316.95;134167;1297;23291;-79
2023/06/15 05:48:51;;;;;;;;;;;;;;;15.87;80.84;100320.56;134087;1290;22514;-78
2023/06/15 05:51:52;;;;;;;;;;;;;;;15.88;80.86;100323.95;134229;1297;23093;-76
2023/06/15 05:54:54;;;;;;;;;;;;;;;15.92;80.99;100322.94;134144;1297;22451;-76
2023/06/15 05:57:54;;;;;;;;;;;;;;;16.01;81.09;100326.26;133970;1298;23197;-76
2023/06/15 06:00:56;;;;;;;;;;;;;;;16.15;80.97;100329.05;134057;1293;23189;-76
2023/06/15 06:03:56;;;;;;;;;;;;;;;16.36;81.14;100327.99;134226;1297;23210;-80
2023/06/15 06:06:59;;;;;;;;;;;;;;;16.78;81.13;100323.30;134160;1285;23297;-75
2023/06/15 06:09:59;;;;;;;;;;;;;;;17.27;80.96;100322.39;134063;1297;22665;-74
2023/06/15 06:13:00;;;;;;;;;;;;;;;17.95;80.39;100324.13;134020;1298;22440;-74
2023/06/15 06:16:06;;;;;;;;;;;;;;;18.61;79.34;100322.63;134067;1297;22443;-75
2023/06/15 06:19:06;;;;;;;;;;;;;;;19.19;78.32;100320.11;134064;1297;22462;-76
2023/06/15 06:22:08;;;;;;;;;;;;;;;19.54;76.68;100321.55;134083;1297;22471;-75
2023/06/15 06:25:08;;;;;;;;;;;;;;;19.92;76.24;100320.44;134051;1297;23314;-75
2023/06/15 06:28:09;;;;;;;;;;;;;;;20.49;75.20;100319.42;134094;1297;23265;-75
2023/06/15 06:31:10;;;;;;;;;;;;;;;20.93;74.03;100314.48;134268;1297;23163;-75
2023/06/15 06:34:10;;;;;;;;;;;;;;;21.21;72.79;100316.16;134239;1297;22422;-75
2023/06/15 06:37:11;;;;;;;;;;;;;;;21.41;71.68;100312.02;134243;1296;23232;-75
2023/06/15 06:40:12;;;;;;;;;;;;;;;21.51;69.65;100314.74;134230;1296;22467;-76
2023/06/15 06:43:12;;;;;;;;;;;;;;;21.26;68.70;100318.05;134171;1297;22515;-76
2023/06/15 06:46:15;;;;;;;;;;;;;;;21.15;68.88;100321.28;134103;1298;22524;-76
2023/06/15 06:49:15;;;;;;;;;;;;;;;21.37;68.72;100317.14;134217;1297;22437;-76
2023/06/15 06:52:16;;;;;;;;;;;;;;;21.61;67.99;100315.45;134226;1297;23343;-76
2023/06/15 06:55:18;;;;;;;;;;;;;;;21.95;67.48;100317.48;134255;1296;23244;-75
2023/06/15 06:58:21;;;;;;;;;;;;;;;22.07;66.40;100319.66;134230;1298;22442;-75
2023/06/15 07:01:23;;;;;;;;;;;;;;;21.99;65.65;100318.99;134198;1297;22479;-76
2023/06/15 07:04:24;;;;;;;;;;;;;;;21.99;65.17;100313.38;134222;1297;22469;-75
2023/06/15 07:07:24;;;;;;;;;;;;;;;21.79;64.69;100313.29;134222;1298;23348;-75
2023/06/15 07:10:25;;;;;;;;;;;;;;;21.72;64.71;100308.00;134266;1297;22485;-77
2023/06/15 07:13:28;;;;;;;;;;;;;;;21.80;64.57;100304.72;134196;1297;22450;-77
2023/06/15 07:16:29;;;;;;;;;;;;;;;21.77;64.16;100303.62;134252;1297;23748;-76
2023/06/15 07:19:29;;;;;;;;;;;;;;;21.68;63.81;100307.52;134228;1297;22448;-78
2023/06/15 07:22:30;;;;;;;;;;;;;;;21.58;63.00;100307.08;134218;1296;22469;-75
2023/06/15 07:25:36;;;;;;;;;;;;;;;21.49;63.18;100309.88;134229;1297;22487;-75
2023/06/15 07:28:40;;;;;;;;;;;;;;;21.44;63.07;100307.55;134213;1297;22569;-75
2023/06/15 07:31:40;;;;;;;;;;;;;;;21.28;62.72;100307.04;134220;1297;22441;-75
2023/06/15 07:34:41;;;;;;;;;;;;;;;21.07;62.56;100307.96;134160;1297;22522;-75
2023/06/15 07:37:41;;;;;;;;;;;;;;;20.92;62.66;100306.70;134220;1297;22528;-77
2023/06/15 07:40:42;;;;;;;;;;;;;;;20.77;62.63;100307.25;134171;1290;22492;-75
2023/06/15 07:43:42;;;;;;;;;;;;;;;20.52;62.83;100309.48;134242;1297;22459;-75
2023/06/15 07:46:43;;;;;;;;;;;;;;;20.38;62.89;100310.75;134256;1297;22455;-75
2023/06/15 07:49:45;;;;;;;;;;;;;;;20.27;63.09;100310.85;134243;1296;22486;-75
2023/06/15 07:52:49;;;;;;;;;;;;;;;20.19;63.31;100308.21;134238;1297;22459;-75
2023/06/15 07:55:50;;;;;;;;;;;;;;;20.10;63.42;100308.60;134231;1297;22483;-75
2023/06/15 07:58:51;;;;;;;;;;;;;;;20.04;63.63;100310.08;134245;1297;22453;-74
2023/06/15 08:01:51;;;;;;;;;;;;;;;19.93;63.52;100310.52;134263;1297;22448;-73
2023/06/15 08:04:52;;;;;;;;;;;;;;;19.85;63.60;100307.42;134241;1297;22671;-75
2023/06/15 08:07:55;;;;;;;;;;;;;;;19.76;63.66;100312.69;134313;1297;23285;-76
2023/06/15 08:10:58;;;;;;;;;;;;;;;19.77;63.76;100311.20;134162;1297;23187;-76
2023/06/15 08:14:00;;;;;;;;;;;;;;;19.77;63.75;100309.29;134192;1297;22423;-76
2023/06/15 08:17:01;;;;;;;;;;;;;;;19.81;63.76;100311.55;134212;1298;22514;-75
2023/06/15 08:20:05;;;;;;;;;;;;;;;19.92;63.99;100309.52;134186;1297;22451;-76
2023/06/15 08:23:06;;;;;;;;;;;;;;;20.31;64.10;100302.25;134221;1297;22539;-76
2023/06/15 08:26:10;;;;;;;;;;;;;;;20.71;63.44;100291.79;134194;1297;22477;-76
2023/06/15 08:29:16;;;;;;;;;;;;;;;20.88;63.17;100295.89;134222;1297;22478;-75
2023/06/15 08:32:16;;;;;;;;;;;;;;;21.02;63.00;100298.89;134229;1298;23070;-76
2023/06/15 08:35:22;;;;;;;;;;;;;;;21.01;62.00;100299.30;134200;1296;22462;-75
2023/06/15 08:38:25;;;;;;;;;;;;;;;20.78;61.58;100305.61;134206;1297;22442;-76
2023/06/15 08:41:26;;;;;;;;;;;;;;;20.50;61.61;100307.54;134225;1297;22485;-77
2023/06/15 08:44:27;;;;;;;;;;;;;;;20.34;61.73;100310.89;134153;1297;22442;-77
2023/06/15 08:47:27;;;;;;;;;;;;;;;20.10;61.62;100310.59;134212;1297;22504;-76
2023/06/15 08:50:28;;;;;;;;;;;;;;;19.82;62.14;100311.64;134210;1297;22469;-76
2023/06/15 08:53:29;;;;;;;;;;;;;;;19.48;63.35;100316.02;134186;1298;22442;-76
2023/06/15 08:56:31;;;;;;;;;;;;;;;19.07;64.62;100318.36;134181;1297;22457;-76
2023/06/15 08:59:32;;;;;;;;;;;;;;;18.72;65.44;100316.83;134235;1297;22399;-77
2023/06/15 09:02:40;;;;;;;;;;;;;;;18.46;65.47;100316.23;134174;1297;23164;-76
2023/06/15 09:05:42;;;;;;;;;;;;;;;18.18;65.03;100313.14;134046;1297;22495;-76
2023/06/15 09:08:44;;;;;;;;;;;;;;;18.02;65.51;100309.64;134087;1297;22497;-76
2023/06/15 09:11:45;;;;;;;;;;;;;;;17.95;66.27;100309.61;134146;1298;22411;-75
2023/06/15 09:14:48;;;;;;;;;;;;;;;17.95;66.87;100308.13;134061;1298;22512;-78
2023/06/15 09:17:52;;;;;;;;;;;;;;;17.98;67.01;100315.47;134111;1297;22509;-76
2023/06/15 09:20:58;;;;;;;;;;;;;;;18.03;66.73;100319.13;134103;1298;22452;-75
2023/06/15 09:24:06;;;;;;;;;;;;;;;18.07;66.64;100321.55;134067;1298;22483;-76
2023/06/15 09:27:16;;;;;;;;;;;;;;;18.10;67.01;100323.16;134053;1297;22476;-78
2023/06/15 09:30:17;;;;;;;;;;;;;;;18.16;67.03;100324.09;134109;1297;22510;-78
2023/06/15 09:33:18;;;;;;;;;;;;;;;18.19;67.20;100323.05;134040;1298;22610;-76
2023/06/15 09:36:18;;;;;;;;;;;;;;;18.23;67.31;100322.09;134065;1297;23129;-76
2023/06/15 09:39:24;;;;;;;;;;;;;;;18.29;67.33;100322.48;134062;1300;22471;-76
2023/06/15 09:42:28;;;;;;;;;;;;;;;18.35;67.90;100323.61;134085;1299;22488;-76
2023/06/15 09:45:28;;;;;;;;;;;;;;;18.48;68.31;100320.00;134070;1297;22428;-76
2023/06/15 09:48:30;;;;;;;;;;;;;;;18.63;68.41;100317.73;133991;1298;22545;-76
2023/06/15 09:51:33;;;;;;;;;;;;;;;18.85;68.71;100314.37;134055;1298;22465;-75
2023/06/15 09:54:38;;;;;;;;;;;;;;;19.12;68.32;100315.23;134137;1297;22463;-75
2023/06/15 09:57:42;;;;;;;;;;;;;;;19.35;68.37;100314.98;134008;1298;22433;-76
2023/06/15 10:00:43;;;;;;;;;;;;;;;19.51;67.61;100311.08;134093;1297;23113;-76
2023/06/15 10:03:45;;;;;;;;;;;;;;;19.50;67.37;100307.60;134065;1297;22570;-75
2023/06/15 10:06:47;;;;;;;;;;;;;;;19.54;67.10;100310.47;134198;1297;23104;-76
2023/06/15 10:09:51;;;;;;;;;;;;;;;19.57;67.65;100311.23;134254;1297;22601;-76
2023/06/15 10:12:55;;;;;;;;;;;;;;;19.68;67.94;100309.11;134251;1299;23174;-76
2023/06/15 10:15:59;;;;;;;;;;;;;;;19.87;67.85;100308.77;134245;1297;23259;-75
2023/06/15 10:19:05;;;;;;;;;;;;;;;20.03;67.47;100307.89;134187;1297;22434;-76
2023/06/15 10:22:07;;;;;;;;;;;;;;;20.11;66.50;100308.05;134242;1297;23224;-76
2023/06/15 10:25:08;;;;;;;;;;;;;;;20.19;65.20;100312.02;134211;1297;22470;-77
2023/06/15 10:28:12;;;;;;;;;;;;;;;20.38;64.37;100307.23;134210;1298;22464;-76
2023/06/15 10:31:23;;;;;;;;;;;;;;;20.55;63.84;100303.46;134179;1297;23151;-76
2023/06/15 10:34:40;;;;;;;;;;;;;;;20.71;62.69;100301.86;134226;1298;22456;-76
2023/06/15 10:38:04;;;;;;;;;;;;;;;20.80;62.28;100294.89;134203;1297;22492;-82
2023/06/15 10:41:05;;;;;;;;;;;;;;;20.99;61.86;100295.21;134235;1297;23076;-79
2023/06/15 10:44:06;;;;;;;;;;;;;;;21.21;61.37;100294.79;134206;1297;22450;-81
2023/06/15 10:47:08;;;;;;;;;;;;;;;21.32;60.73;100296.06;134214;1298;22472;-81
2023/06/15 10:50:14;;;;;;;;;;;;;;;21.36;59.93;100295.45;134246;1296;22480;-81
2023/06/15 10:53:22;;;;;;;;;;;;;;;21.45;59.46;100291.82;134205;1298;22444;-82
2023/06/15 10:56:27;;;;;;;;;;;;;;;21.54;59.44;100289.70;134070;1288;22453;-82
2023/06/15 10:59:34;;;;;;;;;;;;;;;21.58;58.91;100290.28;134264;1296;22499;-82
2023/06/15 11:02:34;;;;;;;;;;;;;;;21.54;58.62;100287.91;134165;1298;22455;-82
2023/06/15 11:05:44;;;;;;;;;;;;;;;21.51;58.42;100279.91;134222;1298;22521;-82
2023/06/15 11:08:52;;;;;;;;;;;;;;;21.52;57.71;100278.77;134255;1297;23446;-82
2023/06/15 11:11:52;;;;;;;;;;;;;;;21.65;57.45;100276.36;134228;1298;22530;-83
2023/06/15 11:14:55;;;;;;;;;;;;;;;21.78;57.65;100271.34;134264;1297;23194;-82
2023/06/15 11:17:57;;;;;;;;;;;;;;;21.97;57.37;100271.20;134209;1297;22549;-81
2023/06/15 11:21:02;;;;;;;;;;;;;;;21.97;56.70;100270.73;134253;1298;23249;-84
2023/06/15 11:24:05;;;;;;;;;;;;;;;21.91;56.48;100270.02;134246;1297;22479;-82
2023/06/15 11:27:09;;;;;;;;;;;;;;;21.89;56.69;100267.65;134260;1297;23232;-81
2023/06/15 11:30:09;;;;;;;;;;;;;;;21.99;56.45;100266.02;134208;1298;23209;-81
2023/06/15 11:33:11;;;;;;;;;;;;;;;22.07;56.20;100263.64;134231;1298;22450;-82
2023/06/15 11:36:11;;;;;;;;;;;;;;;22.22;56.46;100260.39;134270;1297;23209;-81
2023/06/15 11:39:19;;;;;;;;;;;;;;;22.65;56.23;100254.23;134289;1298;22462;-82
2023/06/15 11:42:20;;;;;;;;;;;;;;;23.08;55.52;100253.20;134256;1297;22609;-82
2023/06/15 11:45:23;;;;;;;;;;;;;;;23.13;54.36;100249.40;134300;1289;22460;-81
2023/06/15 11:48:25;;;;;;;;;;;;;;;23.08;53.84;100249.09;134243;1297;22922;-82
2023/06/15 11:51:25;;;;;;;;;;;;;;;23.00;53.12;100245.61;134212;1297;22467;-82
2023/06/15 11:54:26;;;;;;;;;;;;;;;22.83;52.52;100244.00;134231;1298;22443;-82
2023/06/15 11:57:27;;;;;;;;;;;;;;;22.68;52.68;100243.85;134126;1297;22556;-82
2023/06/15 12:00:30;;;;;;;;;;;;;;;22.54;52.77;100245.54;134240;1297;23141;-82
2023/06/15 12:03:31;;;;;;;;;;;;;;;22.29;52.56;100246.20;134216;1299;22481;-83
2023/06/15 12:06:32;;;;;;;;;;;;;;;22.04;52.71;100247.57;134168;1298;23168;-82
2023/06/15 12:09:33;;;;;;;;;;;;;;;22.14;53.34;100243.80;134155;1298;22431;-82
2023/06/15 12:12:34;;;;;;;;;;;;;;;22.22;53.17;100241.26;134160;1298;22484;-82
2023/06/15 12:15:37;;;;;;;;;;;;;;;22.20;52.98;100240.84;134210;1297;23211;-81
2023/06/15 12:18:38;;;;;;;;;;;;;;;22.02;52.82;100236.52;134252;1297;22463;-82
2023/06/15 12:21:39;;;;;;;;;;;;;;;21.83;53.07;100233.38;134242;1297;22484;-82
2023/06/15 12:24:40;;;;;;;;;;;;;;;21.70;53.81;100230.45;134224;1297;22481;-82
2023/06/15 12:27:42;;;;;;;;;;;;;;;21.56;54.12;100228.23;134225;1298;22463;-82
2023/06/15 12:30:43;;;;;;;;;;;;;;;21.36;53.96;100226.54;134234;1297;22458;-81
2023/06/15 12:33:49;;;;;;;;;;;;;;;21.31;54.03;100224.71;134185;1298;22698;-81
2023/06/15 12:36:50;;;;;;;;;;;;;;;21.40;53.96;100219.75;134187;1298;23132;-82
2023/06/15 12:39:51;;;;;;;;;;;;;;;21.56;53.84;100212.91;134160;1304;22472;-83
2023/06/15 12:43:09;;;;;;;;;;;;;;;21.66;53.72;100208.10;134261;1298;22470;-81
2023/06/15 12:46:10;;;;;;;;;;;;;;;21.81;53.64;100200.98;134190;1297;22546;-83
2023/06/15 12:49:13;;;;;;;;;;;;;;;21.97;53.36;100199.35;134273;1298;22419;-81
2023/06/15 12:52:16;;;;;;;;;;;;;;;22.10;53.16;100195.78;134163;1297;23186;-82
2023/06/15 12:55:16;;;;;;;;;;;;;;;22.22;53.11;100191.59;134197;1298;23070;-82
2023/06/15 12:58:17;;;;;;;;;;;;;;;22.44;53.21;100188.64;134212;1298;22521;-81
2023/06/15 13:01:18;;;;;;;;;;;;;;;22.70;52.74;100186.27;134208;1297;22447;-82
2023/06/15 13:04:19;;;;;;;;;;;;;;;22.85;52.18;100185.02;134220;1297;22437;-81
2023/06/15 13:07:24;;;;;;;;;;;;;;;22.88;51.29;100184.08;134227;1297;22453;-80
2023/06/15 13:10:24;;;;;;;;;;;;;;;22.76;50.34;100185.30;134164;1297;22463;-81
2023/06/15 13:13:27;;;;;;;;;;;;;;;22.64;50.41;100181.96;134262;1297;22466;-81
2023/06/15 13:16:28;;;;;;;;;;;;;;;22.62;50.49;100180.52;134206;1297;22460;-81
2023/06/15 13:19:28;;;;;;;;;;;;;;;22.68;50.73;100177.54;134189;1300;22459;-81
2023/06/15 13:22:28;;;;;;;;;;;;;;;22.70;50.91;100172.11;134228;1297;22507;-81
2023/06/15 13:25:30;;;;;;;;;;;;;;;22.69;50.77;100168.52;134151;1297;24474;-81
2023/06/15 13:28:31;;;;;;;;;;;;;;;22.75;50.82;100168.20;134125;1298;22397;-83
2023/06/15 13:31:31;;;;;;;;;;;;;;;22.92;50.46;100166.41;134245;1296;22450;-81
2023/06/15 13:34:32;;;;;;;;;;;;;;;23.09;50.32;100163.77;134234;1298;22753;-82
2023/06/15 13:37:34;;;;;;;;;;;;;;;23.15;50.19;100159.59;134184;1297;22445;-82
2023/06/15 13:40:34;;;;;;;;;;;;;;;23.14;50.03;100162.17;134168;1297;22418;-82
2023/06/15 13:43:35;;;;;;;;;;;;;;;23.01;48.41;100159.41;134218;1297;22511;-79
2023/06/15 13:46:37;;;;;;;;;;;;;;;22.66;48.08;100161.55;134159;1297;22478;-78
2023/06/15 13:49:37;;;;;;;;;;;;;;;22.54;48.47;100161.35;134207;1296;22421;-77
2023/06/15 13:52:38;;;;;;;;;;;;;;;22.52;48.95;100162.68;134219;1298;22450;-77
2023/06/15 13:55:38;;;;;;;;;;;;;;;22.66;48.67;100157.92;134220;1296;22527;-79
2023/06/15 13:58:38;;;;;;;;;;;;;;;22.85;48.36;100154.27;134242;1297;22445;-83
2023/06/15 14:01:39;;;;;;;;;;;;;;;22.96;48.29;100151.00;134199;1295;23486;-76
2023/06/15 14:04:40;;;;;;;;;;;;;;;23.03;47.91;100150.64;134115;1297;22504;-76
2023/06/15 14:07:41;;;;;;;;;;;;;;;23.04;47.66;100147.40;134230;1297;23259;-80
2023/06/15 14:10:41;;;;;;;;;;;;;;;23.14;47.31;100144.14;134229;1296;22484;-76
2023/06/15 14:13:48;;;;;;;;;;;;;;;23.26;46.89;100143.94;134216;1296;22519;-79
2023/06/15 14:16:49;;;;;;;;;;;;;;;23.14;46.62;100145.05;134023;1297;22460;-78
2023/06/15 14:19:52;;;;;;;;;;;;;;;22.99;46.87;100151.14;134203;1286;22490;-76
2023/06/15 14:22:53;;;;;;;;;;;;;;;22.73;46.53;100144.84;134191;1297;22519;-80
2023/06/15 14:25:53;;;;;;;;;;;;;;;22.56;46.89;100147.44;134234;1286;22504;-76
2023/06/15 14:28:54;;;;;;;;;;;;;;;22.44;47.17;100143.77;134160;1297;22460;-77
2023/06/15 14:31:55;;;;;;;;;;;;;;;22.28;47.28;100140.29;134155;1297;22464;-76
2023/06/15 14:34:55;;;;;;;;;;;;;;;22.09;47.42;100134.58;134220;1297;23089;-76
2023/06/15 14:37:55;;;;;;;;;;;;;;;21.99;47.80;100140.33;134163;1297;22474;-76
2023/06/15 14:40:56;;;;;;;;;;;;;;;21.91;47.88;100141.59;134293;1298;22447;-77
2023/06/15 14:43:56;;;;;;;;;;;;;;;21.74;47.78;100148.38;134207;1297;22572;-77
2023/06/15 14:46:57;;;;;;;;;;;;;;;21.31;47.80;100148.66;134198;1297;23363;-85
2023/06/15 14:49:57;;;;;;;;;;;;;;;20.88;48.19;100150.38;134205;1297;22448;-76
2023/06/15 14:52:58;;;;;;;;;;;;;;;20.48;48.55;100155.82;134246;1297;22513;-75
2023/06/15 14:55:58;;;;;;;;;;;;;;;20.19;49.48;100164.52;134241;1297;22507;-78
2023/06/15 14:58:59;;;;;;;;;;;;;;;19.88;50.70;100172.71;134293;1302;22516;-76
2023/06/15 15:02:03;;;;;;;;;;;;;;;19.43;51.48;100182.53;134128;1297;22514;-76
2023/06/15 15:05:04;;;;;;;;;;;;;;;18.95;52.73;100185.30;134197;1297;22502;-75
2023/06/15 15:08:07;;;;;;;;;;;;;;;18.59;54.33;100191.71;134112;1297;22516;-76
2023/06/15 15:11:07;;;;;;;;;;;;;;;18.20;56.44;100194.68;134186;1297;22484;-76
2023/06/15 15:14:08;;;;;;;;;;;;;;;17.79;57.55;100198.31;134144;1297;22493;-75
2023/06/15 15:17:08;;;;;;;;;;;;;;;17.54;58.53;100191.36;134157;1297;23337;-79
2023/06/15 15:20:09;;;;;;;;;;;;;;;17.46;59.31;100192.45;134197;1297;22516;-76
2023/06/15 15:23:10;;;;;;;;;;;;;;;17.48;60.16;100180.44;134227;1297;22464;-76